createdAt,value
2022-09-03T00:01:02.117Z,63.63
2022-09-03T00:02:20.709Z,62.19
2022-09-03T00:03:34.804Z,68.19
2022-09-03T00:04:44.763Z,66.12
2022-09-03T00:05:57.535Z,68.50
2022-09-03T00:07:07.050Z,64.81
2022-09-03T00:08:16.642Z,62.88
2022-09-03T00:09:26.347Z,56.53
2022-09-03T00:10:40.872Z,66.50
2022-09-03T00:12:02.785Z,65.19
2022-09-03T00:13:09.383Z,58.75
2022-09-03T00:14:16.344Z,64.06
2022-09-03T00:15:24.321Z,62.50
2022-09-03T00:16:32.853Z,65.75
2022-09-03T00:17:42.690Z,60.75
2022-09-03T00:18:58.791Z,64.50
2022-09-03T00:20:05.584Z,63.13
2022-09-03T00:21:18.322Z,64.94
2022-09-03T00:22:28.970Z,66.87
2022-09-03T00:23:34.879Z,64.00
2022-09-03T00:24:42.295Z,64.00
2022-09-03T00:25:49.285Z,62.31
2022-09-03T00:26:57.600Z,53.81
2022-09-03T00:28:04.766Z,60.63
2022-09-03T00:29:20.561Z,60.12
2022-09-03T00:30:29.890Z,59.94
2022-09-03T00:31:42.846Z,60.88
2022-09-03T00:32:54.889Z,59.38
2022-09-03T00:34:04.477Z,56.37
2022-09-03T00:35:11.554Z,59.19
2022-09-03T00:36:37.990Z,62.13
2022-09-03T00:37:42.024Z,54.00
2022-09-03T00:38:46.715Z,49.25
2022-09-03T00:39:50.988Z,56.44
2022-09-03T00:41:16.330Z,56.69
2022-09-03T00:42:35.418Z,50.06
2022-09-03T00:43:45.202Z,37.56
2022-09-03T00:45:05.470Z,42.25
2022-09-03T00:46:18.650Z,23.19
2022-09-03T00:47:28.796Z,37.06
2022-09-03T00:48:35.747Z,43.87
2022-09-03T00:49:49.565Z,57.62
2022-09-03T00:50:56.633Z,38.44
2022-09-03T00:52:23.153Z,43.13
2022-09-03T00:53:28.770Z,39.88
2022-09-03T00:54:53.734Z,32.50
2022-09-03T00:56:18.690Z,55.63
2022-09-03T00:57:42.081Z,57.25
2022-09-03T00:58:54.853Z,57.73
2022-09-03T01:00:10.628Z,44.81
2022-09-03T01:01:26.662Z,47.88
2022-09-03T01:02:42.871Z,50.94
2022-09-03T01:04:02.107Z,52.62
2022-09-03T01:05:18.147Z,52.50
2022-09-03T01:06:45.081Z,51.67
2022-09-03T01:07:52.091Z,58.06
2022-09-03T01:09:18.719Z,48.93
2022-09-03T01:10:41.497Z,57.06
2022-09-03T01:12:11.109Z,55.50
2022-09-03T01:13:23.932Z,52.13
2022-09-03T01:14:33.702Z,52.94
2022-09-03T01:15:43.491Z,41.60
2022-09-03T01:16:59.364Z,50.31
2022-09-03T01:18:09.222Z,50.44
2022-09-03T01:19:28.143Z,40.80
2022-09-03T01:20:53.219Z,46.40
2022-09-03T01:22:02.960Z,45.38
2022-09-03T01:23:21.562Z,44.00
2022-09-03T01:24:49.340Z,40.50
2022-09-03T01:26:08.090Z,39.06
2022-09-03T01:27:34.380Z,47.94
2022-09-03T01:28:44.124Z,43.56
2022-09-03T01:30:09.070Z,40.56
2022-09-03T01:31:31.235Z,42.06
2022-09-03T01:32:50.212Z,51.13
2022-09-03T01:34:00.103Z,37.06
2022-09-03T01:35:12.810Z,42.19
2022-09-03T01:36:41.395Z,39.94
2022-09-03T01:37:51.132Z,41.88
2022-09-03T01:38:58.115Z,48.69
2022-09-03T01:40:09.860Z,37.38
2022-09-03T01:41:34.535Z,37.81
2022-09-03T01:42:47.356Z,40.50
2022-09-03T01:44:21.500Z,43.07
2022-09-03T01:45:34.508Z,45.50
2022-09-03T01:46:41.254Z,38.75
2022-09-03T01:47:53.945Z,40.81
2022-09-03T01:49:09.962Z,47.69
2022-09-03T01:50:17.247Z,51.37
2022-09-03T01:51:24.229Z,43.69
2022-09-03T01:52:45.925Z,45.69
2022-09-03T01:54:21.182Z,41.31
2022-09-03T01:55:36.107Z,50.81
2022-09-03T01:57:34.715Z,45.63
2022-09-03T01:58:43.089Z,50.94
2022-09-03T01:59:53.050Z,50.56
2022-09-03T02:01:00.141Z,43.87
2022-09-03T02:02:07.124Z,49.13
2022-09-03T02:03:13.745Z,49.60
2022-09-03T02:04:20.820Z,49.81
2022-09-03T02:05:28.033Z,43.81
2022-09-03T02:06:32.861Z,43.06
2022-09-03T02:07:51.642Z,52.20
2022-09-03T02:08:55.615Z,53.63
2022-09-03T02:10:00.573Z,57.47
2022-09-03T02:11:07.579Z,45.25
2022-09-03T02:12:17.129Z,48.87
2022-09-03T02:13:24.036Z,54.87
2022-09-03T02:14:29.633Z,54.94
2022-09-03T02:15:35.808Z,50.00
2022-09-03T02:16:40.398Z,51.07
2022-09-03T02:17:47.510Z,45.25
2022-09-03T02:18:54.270Z,61.44
2022-09-03T02:19:58.746Z,62.44
2022-09-03T02:21:03.458Z,52.07
2022-09-03T02:22:07.581Z,53.94
2022-09-03T02:23:11.782Z,51.06
2022-09-03T02:24:16.017Z,48.20
2022-09-03T02:25:21.144Z,43.75
2022-09-03T02:26:25.728Z,43.94
2022-09-03T02:27:29.778Z,43.69
2022-09-03T02:28:34.367Z,49.63
2022-09-03T02:29:38.519Z,42.25
2022-09-03T02:30:43.158Z,44.07
2022-09-03T02:31:47.660Z,41.63
2022-09-03T02:32:51.812Z,41.00
2022-09-03T02:33:57.935Z,44.56
2022-09-03T02:35:02.043Z,39.38
2022-09-03T02:36:14.400Z,36.50
2022-09-03T02:37:19.935Z,36.81
2022-09-03T02:38:26.191Z,40.12
2022-09-03T02:39:30.332Z,41.81
2022-09-03T02:40:34.330Z,37.88
2022-09-03T02:41:38.651Z,36.33
2022-09-03T02:42:43.044Z,42.25
2022-09-03T02:45:02.522Z,39.75
2022-09-03T02:46:12.783Z,34.60
2022-09-03T02:47:16.891Z,35.88
2022-09-03T02:48:23.985Z,35.27
2022-09-03T02:49:30.403Z,34.75
2022-09-03T02:50:37.492Z,33.69
2022-09-03T02:51:43.902Z,38.75
2022-09-03T02:52:47.932Z,38.13
2022-09-03T02:53:51.900Z,34.88
2022-09-03T02:54:55.864Z,35.20
2022-09-03T02:56:01.681Z,36.31
2022-09-03T02:57:09.124Z,36.44
2022-09-03T02:58:13.436Z,32.88
2022-09-03T02:59:17.399Z,32.75
2022-09-03T03:00:21.937Z,35.25
2022-09-03T03:01:26.135Z,35.31
2022-09-03T03:02:30.332Z,31.00
2022-09-03T03:03:35.365Z,32.94
2022-09-03T03:04:40.831Z,40.07
2022-09-03T03:05:49.994Z,40.87
2022-09-03T03:06:54.359Z,34.50
2022-09-03T03:07:59.917Z,34.94
2022-09-03T03:09:04.362Z,39.69
2022-09-03T03:10:09.466Z,38.69
2022-09-03T03:11:14.080Z,34.27
2022-09-03T03:12:18.103Z,37.13
2022-09-03T03:13:22.065Z,38.67
2022-09-03T03:14:26.101Z,35.27
2022-09-03T03:15:30.145Z,36.56
2022-09-03T03:16:34.328Z,35.07
2022-09-03T03:17:38.346Z,34.44
2022-09-03T03:18:43.154Z,35.50
2022-09-03T03:19:47.052Z,36.38
2022-09-03T03:20:51.261Z,32.13
2022-09-03T03:21:55.308Z,36.00
2022-09-03T03:23:02.075Z,31.87
2022-09-03T03:24:06.407Z,36.94
2022-09-03T03:25:10.968Z,31.25
2022-09-03T03:26:21.161Z,35.81
2022-09-03T03:27:26.548Z,33.06
2022-09-03T03:28:30.734Z,35.06
2022-09-03T03:29:34.697Z,38.40
2022-09-03T03:30:40.506Z,36.00
2022-09-03T03:31:44.907Z,35.38
2022-09-03T03:32:48.938Z,35.31
2022-09-03T03:34:00.446Z,32.33
2022-09-03T03:35:06.011Z,34.56
2022-09-03T03:36:13.617Z,36.13
2022-09-03T03:37:17.631Z,46.19
2022-09-03T03:38:21.606Z,34.44
2022-09-03T03:39:25.754Z,35.44
2022-09-03T03:40:32.987Z,41.25
2022-09-03T03:41:37.492Z,35.20
2022-09-03T03:42:41.805Z,33.53
2022-09-03T03:43:46.298Z,46.67
2022-09-03T03:44:50.338Z,71.60
2022-09-03T03:45:59.247Z,53.47
2022-09-03T03:47:03.819Z,52.87
2022-09-03T03:48:07.786Z,57.00
2022-09-03T03:49:11.988Z,66.94
2022-09-03T03:50:18.287Z,63.56
2022-09-03T03:51:22.336Z,57.87
2022-09-03T03:52:27.835Z,57.06
2022-09-03T03:53:32.358Z,53.07
2022-09-03T03:54:36.538Z,41.25
2022-09-03T03:55:40.494Z,43.47
2022-09-03T03:56:44.733Z,39.00
2022-09-03T03:57:50.391Z,36.80
2022-09-03T03:58:55.355Z,23.06
2022-09-03T03:59:59.478Z,21.69
2022-09-03T04:01:12.107Z,38.13
2022-09-03T04:02:18.374Z,38.94
2022-09-03T04:03:22.449Z,31.44
2022-09-03T04:04:26.416Z,27.53
2022-09-03T04:05:33.661Z,14.69
2022-09-03T04:06:36.246Z,14.50
2022-09-03T04:07:40.307Z,16.75
2022-09-03T04:08:46.348Z,12.94
2022-09-03T04:09:50.759Z,29.31
2022-09-03T04:10:55.150Z,15.94
2022-09-03T04:12:01.926Z,28.62
2022-09-03T04:13:05.886Z,30.44
2022-09-03T04:14:09.828Z,24.75
2022-09-03T04:15:13.885Z,29.94
2022-09-03T04:16:21.329Z,28.81
2022-09-03T04:17:25.590Z,18.75
2022-09-03T04:18:31.608Z,14.25
2022-09-03T04:19:35.608Z,13.50
2022-09-03T04:20:39.623Z,21.69
2022-09-03T04:21:44.020Z,20.88
2022-09-03T04:22:51.904Z,14.44
2022-09-03T04:23:55.068Z,13.94
2022-09-03T04:24:58.955Z,21.25
2022-09-03T04:26:05.301Z,23.13
2022-09-03T04:27:09.833Z,23.75
2022-09-03T04:28:15.843Z,18.25
2022-09-03T04:29:19.607Z,26.50
2022-09-03T04:30:24.138Z,32.31
2022-09-03T04:31:30.305Z,28.31
2022-09-03T04:32:35.736Z,35.60
2022-09-03T04:33:40.122Z,26.62
2022-09-03T04:34:44.130Z,30.44
2022-09-03T04:35:50.815Z,22.31
2022-09-03T04:36:54.883Z,27.13
2022-09-03T04:37:59.036Z,32.69
2022-09-03T04:39:03.213Z,28.81
2022-09-03T04:40:08.199Z,34.69
2022-09-03T04:41:15.308Z,33.38
2022-09-03T04:42:22.554Z,33.19
2022-09-03T04:43:27.064Z,36.94
2022-09-03T04:44:31.032Z,47.19
2022-09-03T04:45:35.143Z,46.06
2022-09-03T04:46:39.272Z,42.75
2022-09-03T04:47:43.172Z,39.69
2022-09-03T04:48:52.123Z,43.75
2022-09-03T04:49:57.177Z,44.19
2022-09-03T04:51:10.343Z,38.81
2022-09-03T04:52:16.369Z,46.00
2022-09-03T04:53:20.175Z,38.25
2022-09-03T04:54:24.140Z,45.38
2022-09-03T04:55:34.940Z,41.13
2022-09-03T04:56:40.158Z,50.00
2022-09-03T04:57:44.127Z,42.27
2022-09-03T04:58:51.205Z,45.47
2022-09-03T04:59:54.906Z,43.56
2022-09-03T05:00:59.067Z,44.25
2022-09-03T05:02:03.422Z,47.00
2022-09-03T05:03:07.463Z,47.44
2022-09-03T05:04:11.432Z,43.13
2022-09-03T05:05:16.725Z,43.81
2022-09-03T05:06:21.358Z,44.13
2022-09-03T05:07:25.314Z,40.87
2022-09-03T05:08:29.431Z,45.44
2022-09-03T05:09:33.344Z,49.31
2022-09-03T05:10:37.407Z,49.00
2022-09-03T05:11:41.390Z,56.37
2022-09-03T05:12:45.487Z,56.13
2022-09-03T05:13:51.209Z,62.25
2022-09-03T05:14:55.176Z,66.87
2022-09-03T05:16:04.242Z,63.56
2022-09-03T05:17:08.231Z,67.06
2022-09-03T05:18:12.455Z,64.62
2022-09-03T05:19:16.485Z,64.87
2022-09-03T05:20:21.896Z,58.06
2022-09-03T05:21:27.208Z,57.06
2022-09-03T05:22:31.409Z,64.87
2022-09-03T05:23:40.745Z,65.00
2022-09-03T05:24:44.747Z,71.62
2022-09-03T05:25:57.722Z,74.81
2022-09-03T05:27:01.992Z,71.75
2022-09-03T05:28:05.963Z,71.94
2022-09-03T05:29:10.172Z,78.69
2022-09-03T05:30:15.184Z,79.44
2022-09-03T05:31:20.671Z,68.81
2022-09-03T05:32:24.671Z,85.00
2022-09-03T05:33:29.079Z,78.00
2022-09-03T05:34:33.042Z,84.13
2022-09-03T05:35:37.001Z,79.37
2022-09-03T05:36:41.089Z,82.50
2022-09-03T05:37:45.539Z,82.81
2022-09-03T05:38:50.584Z,92.44
2022-09-03T05:39:54.611Z,95.50
2022-09-03T05:41:02.679Z,99.44
2022-09-03T05:42:06.722Z,99.56
2022-09-03T05:43:12.249Z,100.12
2022-09-03T05:44:16.286Z,99.69
2022-09-03T05:45:21.812Z,101.75
2022-09-03T05:46:29.705Z,94.62
2022-09-03T05:47:33.654Z,99.00
2022-09-03T05:48:39.201Z,95.81
2022-09-03T05:49:43.235Z,101.00
2022-09-03T05:50:47.216Z,110.88
2022-09-03T05:51:51.197Z,107.37
2022-09-03T05:52:55.235Z,106.25
2022-09-03T05:54:01.099Z,120.31
2022-09-03T05:55:05.507Z,115.56
2022-09-03T05:56:12.265Z,108.56
2022-09-03T05:57:16.258Z,108.87
2022-09-03T05:58:20.232Z,103.00
2022-09-03T05:59:24.392Z,119.75
2022-09-03T06:00:28.507Z,126.00
2022-09-03T06:01:36.203Z,118.37
2022-09-03T06:02:40.375Z,109.19
2022-09-03T06:03:46.534Z,103.25
2022-09-03T06:04:53.168Z,103.06
2022-09-03T06:05:57.137Z,96.80
2022-09-03T06:07:01.237Z,100.69
2022-09-03T06:08:05.199Z,97.69
2022-09-03T06:09:12.284Z,111.00
2022-09-03T06:10:17.110Z,112.56
2022-09-03T06:11:21.514Z,119.50
2022-09-03T06:12:25.537Z,119.81
2022-09-03T06:13:30.770Z,116.19
2022-09-03T06:14:36.320Z,118.20
2022-09-03T06:15:40.524Z,115.06
2022-09-03T06:16:47.302Z,104.87
2022-09-03T06:17:51.357Z,98.20
2022-09-03T06:18:56.839Z,85.06
2022-09-03T06:20:00.878Z,97.27
2022-09-03T06:21:10.591Z,86.73
2022-09-03T06:22:13.385Z,86.63
2022-09-03T06:23:17.439Z,106.37
2022-09-03T06:24:22.633Z,106.60
2022-09-03T06:25:28.309Z,89.37
2022-09-03T06:26:33.568Z,88.12
2022-09-03T06:27:38.723Z,85.94
2022-09-03T06:28:44.159Z,91.93
2022-09-03T06:29:48.120Z,88.00
2022-09-03T06:30:54.281Z,90.67
2022-09-03T06:31:58.337Z,105.00
2022-09-03T06:33:02.436Z,100.56
2022-09-03T06:34:06.437Z,105.44
2022-09-03T06:35:10.671Z,108.25
2022-09-03T06:36:18.569Z,113.62
2022-09-03T06:37:22.644Z,105.94
2022-09-03T06:38:30.612Z,113.75
2022-09-03T06:39:38.608Z,104.12
2022-09-03T06:40:42.597Z,106.25
2022-09-03T06:41:46.567Z,103.75
2022-09-03T06:42:57.907Z,103.38
2022-09-03T06:44:08.850Z,92.07
2022-09-03T06:45:12.803Z,104.81
2022-09-03T06:46:19.979Z,106.44
2022-09-03T06:47:24.015Z,92.27
2022-09-03T06:48:30.199Z,93.44
2022-09-03T06:49:34.257Z,103.50
2022-09-03T06:50:38.225Z,96.53
2022-09-03T06:51:44.102Z,103.50
2022-09-03T06:52:53.461Z,96.73
2022-09-03T06:54:02.480Z,99.13
2022-09-03T06:55:06.937Z,97.12
2022-09-03T06:56:14.066Z,101.25
2022-09-03T06:57:18.177Z,103.25
2022-09-03T06:58:22.855Z,95.38
2022-09-03T06:59:32.645Z,100.33
2022-09-03T07:01:22.740Z,100.00
2022-09-03T07:02:04.199Z,108.37
2022-09-03T07:04:07.633Z,115.44
2022-09-03T07:04:37.365Z,105.63
2022-09-03T07:05:12.196Z,107.53
2022-09-03T07:06:19.942Z,110.00
2022-09-03T07:07:23.914Z,110.75
2022-09-03T07:08:27.998Z,108.56
2022-09-03T07:09:32.003Z,109.81
2022-09-03T07:10:37.833Z,107.12
2022-09-03T07:11:41.936Z,103.06
2022-09-03T07:12:45.929Z,92.00
2022-09-03T07:13:51.438Z,101.13
2022-09-03T07:14:57.233Z,98.50
2022-09-03T07:16:03.961Z,98.31
2022-09-03T07:17:10.985Z,101.38
2022-09-03T07:18:14.983Z,95.19
2022-09-03T07:19:19.124Z,103.50
2022-09-03T07:20:23.371Z,96.33
2022-09-03T07:21:30.623Z,88.56
2022-09-03T07:22:37.989Z,97.33
2022-09-03T07:23:42.881Z,90.60
2022-09-03T07:24:48.409Z,94.13
2022-09-03T07:25:55.130Z,89.60
2022-09-03T07:26:59.452Z,73.07
2022-09-03T07:28:05.054Z,91.12
2022-09-03T07:29:09.276Z,83.87
2022-09-03T07:30:14.005Z,92.50
2022-09-03T07:31:20.848Z,107.33
2022-09-03T07:32:24.982Z,119.56
2022-09-03T07:33:33.630Z,120.25
2022-09-03T07:34:36.283Z,137.56
2022-09-03T07:35:43.772Z,131.94
2022-09-03T07:36:51.273Z,122.75
2022-09-03T07:37:55.982Z,128.38
2022-09-03T07:39:00.319Z,122.75
2022-09-03T07:40:04.701Z,117.81
2022-09-03T07:41:10.768Z,136.88
2022-09-03T07:42:14.758Z,138.94
2022-09-03T07:43:18.727Z,140.62
2022-09-03T07:44:22.729Z,137.44
2022-09-03T07:45:28.325Z,137.31
2022-09-03T07:46:35.553Z,138.19
2022-09-03T07:47:47.453Z,121.62
2022-09-03T07:48:53.498Z,133.94
2022-09-03T07:49:57.576Z,144.18
2022-09-03T07:51:02.124Z,145.41
2022-09-03T07:52:06.110Z,145.75
2022-09-03T07:53:13.470Z,144.53
2022-09-03T07:54:19.136Z,136.37
2022-09-03T07:55:25.580Z,132.50
2022-09-03T07:56:30.053Z,131.12
2022-09-03T07:57:34.132Z,137.44
2022-09-03T07:58:39.444Z,144.31
2022-09-03T07:59:43.485Z,133.63
2022-09-03T08:00:49.675Z,136.25
2022-09-03T08:01:53.331Z,124.81
2022-09-03T08:02:57.312Z,134.69
2022-09-03T08:04:02.501Z,96.31
2022-09-03T08:05:07.110Z,117.56
2022-09-03T08:06:13.979Z,104.06
2022-09-03T08:07:18.024Z,101.31
2022-09-03T08:08:22.136Z,108.56
2022-09-03T08:09:26.490Z,100.81
2022-09-03T08:10:36.768Z,99.75
2022-09-03T08:11:43.120Z,107.56
2022-09-03T08:12:47.242Z,110.44
2022-09-03T08:13:59.447Z,107.00
2022-09-03T08:15:03.469Z,107.81
2022-09-03T08:16:11.010Z,119.50
2022-09-03T08:17:15.154Z,116.88
2022-09-03T08:18:20.400Z,118.94
2022-09-03T08:19:26.629Z,111.62
2022-09-03T08:20:30.997Z,122.31
2022-09-03T08:21:35.512Z,128.44
2022-09-03T08:22:39.548Z,132.63
2022-09-03T08:23:46.267Z,123.19
2022-09-03T08:24:50.243Z,121.75
2022-09-03T08:26:03.537Z,110.00
2022-09-03T08:27:07.495Z,113.19
2022-09-03T08:28:11.554Z,116.50
2022-09-03T08:29:15.588Z,116.69
2022-09-03T08:30:21.099Z,114.75
2022-09-03T08:31:25.974Z,111.44
2022-09-03T08:32:32.653Z,117.81
2022-09-03T08:33:36.623Z,117.56
2022-09-03T08:34:40.688Z,118.75
2022-09-03T08:35:47.665Z,119.94
2022-09-03T08:36:54.198Z,114.81
2022-09-03T08:37:59.660Z,120.44
2022-09-03T08:39:06.197Z,116.81
2022-09-03T08:40:11.821Z,110.69
2022-09-03T08:41:18.350Z,104.44
2022-09-03T08:42:35.320Z,106.69
2022-09-03T08:44:16.570Z,110.81
2022-09-03T08:45:21.977Z,107.06
2022-09-03T08:46:48.242Z,103.62
2022-09-03T08:47:58.355Z,69.94
2022-09-03T08:49:04.479Z,86.44
2022-09-03T08:50:26.252Z,87.31
2022-09-03T08:51:31.761Z,97.75
2022-09-03T08:52:39.031Z,96.37
2022-09-03T08:53:51.667Z,95.56
2022-09-03T08:55:01.288Z,96.25
2022-09-03T08:56:10.968Z,92.12
2022-09-03T08:57:16.937Z,102.56
2022-09-03T08:58:23.659Z,105.25
2022-09-03T08:59:32.819Z,105.12
2022-09-03T09:00:47.669Z,104.00
2022-09-03T09:02:16.043Z,106.37
2022-09-03T09:03:32.043Z,106.19
2022-09-03T09:04:59.820Z,111.81
2022-09-03T09:06:12.734Z,127.44
2022-09-03T09:07:19.685Z,132.25
2022-09-03T09:08:32.829Z,108.12
2022-09-03T09:09:48.259Z,144.24
2022-09-03T09:11:19.216Z,147.06
2022-09-03T09:12:41.338Z,131.19
2022-09-03T09:13:47.550Z,135.25
2022-09-03T09:15:13.629Z,131.87
2022-09-03T09:16:24.482Z,110.69
2022-09-03T09:17:49.529Z,137.56
2022-09-03T09:19:02.481Z,130.75
2022-09-03T09:20:33.833Z,131.12
2022-09-03T09:21:55.762Z,123.56
2022-09-03T09:23:08.192Z,129.56
2022-09-03T09:24:24.811Z,130.44
2022-09-03T09:25:29.052Z,122.37
2022-09-03T09:26:34.519Z,133.75
2022-09-03T09:27:40.343Z,143.41
2022-09-03T09:28:47.105Z,151.82
2022-09-03T09:29:56.908Z,141.50
2022-09-03T09:31:03.575Z,134.69
2022-09-03T09:32:10.901Z,135.73
2022-09-03T09:33:16.655Z,120.80
2022-09-03T09:34:20.630Z,112.62
2022-09-03T09:35:25.295Z,118.81
2022-09-03T09:36:31.047Z,142.00
2022-09-03T09:37:35.119Z,163.47
2022-09-03T09:38:40.460Z,144.13
2022-09-03T09:39:56.223Z,172.65
2022-09-03T09:41:15.203Z,147.69
2022-09-03T09:42:21.799Z,162.06
2022-09-03T09:43:25.819Z,181.82
2022-09-03T09:44:29.857Z,184.12
2022-09-03T09:45:34.722Z,165.00
2022-09-03T09:46:40.614Z,155.19
2022-09-03T09:47:44.843Z,128.20
2022-09-03T09:48:57.864Z,94.94
2022-09-03T09:50:03.659Z,103.00
2022-09-03T09:51:16.341Z,74.31
2022-09-03T09:52:21.844Z,72.25
2022-09-03T09:53:28.841Z,72.25
2022-09-03T09:54:32.917Z,60.53
2022-09-03T09:55:41.461Z,61.69
2022-09-03T09:56:46.368Z,60.06
2022-09-03T09:57:53.410Z,65.44
2022-09-03T09:59:08.919Z,59.31
2022-09-03T10:00:16.442Z,85.69
2022-09-03T10:01:23.169Z,87.06
2022-09-03T10:02:28.972Z,94.50
2022-09-03T10:03:35.131Z,78.50
2022-09-03T10:04:39.760Z,77.75
2022-09-03T10:05:44.663Z,73.37
2022-09-03T10:06:57.599Z,98.37
2022-09-03T10:08:04.536Z,122.73
2022-09-03T10:09:14.378Z,164.75
2022-09-03T10:10:21.392Z,210.35
2022-09-03T10:11:25.439Z,207.12
2022-09-03T10:12:32.516Z,218.00
2022-09-03T10:13:39.543Z,195.83
2022-09-03T10:14:47.791Z,202.39
2022-09-03T10:16:00.980Z,179.53
2022-09-03T10:17:39.518Z,169.94
2022-09-03T10:18:55.867Z,111.56
2022-09-03T10:20:14.781Z,105.69
2022-09-03T10:21:44.107Z,107.12
2022-09-03T10:22:56.844Z,90.44
2022-09-03T10:24:13.057Z,98.50
2022-09-03T10:25:18.171Z,95.94
2022-09-03T10:26:24.535Z,106.06
2022-09-03T10:27:30.306Z,108.56
2022-09-03T10:28:39.989Z,127.06
2022-09-03T10:29:44.060Z,145.59
2022-09-03T10:31:01.432Z,154.35
2022-09-03T10:32:14.990Z,130.44
2022-09-03T10:33:33.969Z,127.50
2022-09-03T10:34:52.600Z,116.19
2022-09-03T10:36:10.955Z,116.06
2022-09-03T10:37:38.906Z,112.88
2022-09-03T10:38:45.661Z,104.56
2022-09-03T10:40:01.241Z,153.29
2022-09-03T10:41:19.125Z,126.69
2022-09-03T10:42:34.744Z,128.87
2022-09-03T10:44:06.103Z,139.31
2022-09-03T10:45:30.752Z,99.19
2022-09-03T10:46:42.854Z,97.62
2022-09-03T10:48:12.545Z,108.56
2022-09-03T10:49:34.604Z,93.75
2022-09-03T10:51:00.451Z,96.81
2022-09-03T10:52:10.510Z,91.37
2022-09-03T10:53:32.737Z,91.00
2022-09-03T10:54:51.853Z,87.19
2022-09-03T10:56:07.757Z,91.81
2022-09-03T10:57:23.517Z,94.00
2022-09-03T10:58:57.815Z,94.81
2022-09-03T11:00:10.023Z,101.75
2022-09-03T11:01:39.659Z,116.88
2022-09-03T11:03:04.915Z,103.75
2022-09-03T11:04:17.856Z,122.56
2022-09-03T11:05:30.520Z,170.76
2022-09-03T11:06:43.940Z,198.50
2022-09-03T11:07:56.854Z,188.65
2022-09-03T11:09:09.721Z,194.83
2022-09-03T11:10:35.066Z,187.76
2022-09-03T11:11:44.632Z,156.82
2022-09-03T11:13:00.271Z,182.06
2022-09-03T11:14:18.196Z,165.47
2022-09-03T11:15:30.500Z,173.29
2022-09-03T11:16:37.707Z,149.41
2022-09-03T11:17:44.787Z,173.88
2022-09-03T11:19:03.477Z,196.28
2022-09-03T11:20:22.544Z,156.06
2022-09-03T11:21:28.803Z,162.94
2022-09-03T11:22:34.016Z,209.11
2022-09-03T11:23:41.022Z,237.06
2022-09-03T11:24:48.933Z,229.72
2022-09-03T11:25:55.961Z,208.29
2022-09-03T11:27:19.885Z,201.39
2022-09-03T11:28:39.121Z,201.65
2022-09-03T11:29:59.375Z,197.94
2022-09-03T11:31:15.549Z,193.35
2022-09-03T11:32:28.329Z,140.69
2022-09-03T11:33:34.825Z,103.06
2022-09-03T11:34:50.653Z,82.44
2022-09-03T11:36:00.014Z,88.75
2022-09-03T11:37:25.976Z,78.87
2022-09-03T11:38:31.105Z,84.06
2022-09-03T11:39:40.042Z,86.25
2022-09-03T11:40:46.728Z,72.94
2022-09-03T11:42:05.810Z,79.44
2022-09-03T11:43:15.311Z,85.19
2022-09-03T11:44:20.334Z,78.56
2022-09-03T11:45:30.249Z,73.31
2022-09-03T11:46:34.575Z,76.12
2022-09-03T11:47:41.313Z,80.50
2022-09-03T11:48:53.816Z,81.00
2022-09-03T11:50:00.786Z,78.12
2022-09-03T11:51:05.283Z,74.06
2022-09-03T11:52:09.261Z,78.25
2022-09-03T11:53:19.000Z,78.50
2022-09-03T11:54:25.706Z,73.37
2022-09-03T11:55:38.264Z,75.44
2022-09-03T11:56:38.986Z,72.69
2022-09-03T11:57:44.664Z,81.44
2022-09-03T11:59:03.457Z,79.94
2022-09-03T12:00:14.236Z,96.93
2022-09-03T12:01:18.715Z,129.06
2022-09-03T12:02:34.608Z,155.75
2022-09-03T12:03:47.809Z,234.94
2022-09-03T12:05:18.852Z,210.78
2022-09-03T12:06:56.891Z,178.22
2022-09-03T12:08:15.226Z,162.76
2022-09-03T12:09:59.160Z,169.06
2022-09-03T12:11:28.477Z,128.25
2022-09-03T12:12:48.876Z,142.47
2022-09-03T12:14:21.997Z,152.88
2022-09-03T12:15:49.108Z,147.88
2022-09-03T12:16:59.432Z,128.88
2022-09-03T12:18:09.345Z,145.18
2022-09-03T12:19:49.241Z,110.19
2022-09-03T12:20:59.401Z,88.75
2022-09-03T12:22:03.506Z,79.12
2022-09-03T12:23:09.730Z,93.62
2022-09-03T12:24:15.256Z,93.94
2022-09-03T12:25:19.300Z,97.37
2022-09-03T12:26:26.300Z,90.81
2022-09-03T12:27:33.491Z,90.62
2022-09-03T12:28:41.437Z,98.62
2022-09-03T12:30:00.275Z,89.31
2022-09-03T12:31:10.409Z,92.88
2022-09-03T12:32:15.522Z,89.87
2022-09-03T12:33:21.637Z,90.69
2022-09-03T12:34:25.782Z,97.94
2022-09-03T12:36:47.821Z,125.56
2022-09-03T12:38:11.975Z,124.71
2022-09-03T12:39:18.219Z,140.59
2022-09-03T12:40:11.416Z,138.71
2022-09-03T12:41:27.942Z,143.06
2022-09-03T12:42:32.903Z,136.12
2022-09-03T12:43:37.965Z,164.41
2022-09-03T12:44:42.782Z,167.65
2022-09-03T12:48:19.768Z,137.88
2022-09-03T12:49:31.215Z,141.44
2022-09-03T12:50:29.902Z,126.69
2022-09-03T12:51:58.158Z,146.12
2022-09-03T12:52:51.008Z,112.06
2022-09-03T12:53:55.106Z,101.50
2022-09-03T12:55:04.815Z,104.94
2022-09-03T12:56:12.258Z,98.37
2022-09-03T12:57:19.203Z,97.31
2022-09-03T12:58:29.143Z,95.87
2022-09-03T12:59:36.175Z,95.19
2022-09-03T13:00:43.240Z,92.56
2022-09-03T13:01:50.352Z,92.75
2022-09-03T13:03:09.688Z,99.69
2022-09-03T13:04:16.712Z,96.06
2022-09-03T13:05:23.724Z,99.62
2022-09-03T13:06:30.797Z,94.37
2022-09-03T13:07:37.614Z,97.31
2022-09-03T13:08:49.365Z,100.31
2022-09-03T13:09:56.382Z,101.44
2022-09-03T13:11:03.348Z,104.12
2022-09-03T13:12:07.662Z,100.87
2022-09-03T13:13:31.970Z,98.62
2022-09-03T13:14:47.011Z,98.62
2022-09-03T13:16:11.600Z,94.50
2022-09-03T13:17:38.075Z,93.75
2022-09-03T13:18:48.033Z,97.12
2022-09-03T13:20:03.814Z,100.06
2022-09-03T13:21:10.795Z,91.94
2022-09-03T13:22:20.548Z,101.94
2022-09-03T13:23:39.354Z,91.12
2022-09-03T13:25:15.966Z,90.69
2022-09-03T13:26:47.090Z,88.37
2022-09-03T13:28:23.756Z,89.33
2022-09-03T13:29:50.033Z,91.25
2022-09-03T13:30:58.840Z,94.06
2022-09-03T13:32:25.139Z,92.50
2022-09-03T13:33:44.240Z,89.13
2022-09-03T13:35:00.380Z,91.00
2022-09-03T13:36:13.635Z,91.37
2022-09-03T13:37:46.071Z,92.00
2022-09-03T13:38:58.906Z,93.37
2022-09-03T13:40:20.869Z,88.31
2022-09-03T13:41:32.453Z,94.31
2022-09-03T13:42:42.841Z,96.63
2022-09-03T13:43:55.654Z,91.75
2022-09-03T13:45:17.506Z,89.75
2022-09-03T13:46:27.701Z,91.44
2022-09-03T13:47:43.973Z,95.00
2022-09-03T13:48:51.215Z,90.12
2022-09-03T13:50:07.051Z,89.44
2022-09-03T13:51:25.905Z,90.00
2022-09-03T13:52:38.703Z,93.31
2022-09-03T13:53:51.436Z,90.44
2022-09-03T13:54:58.408Z,91.63
2022-09-03T13:56:05.387Z,89.06
2022-09-03T13:57:21.475Z,90.75
2022-09-03T13:58:30.006Z,90.56
2022-09-03T14:00:08.622Z,85.44
2022-09-03T14:01:30.216Z,84.94
2022-09-03T14:02:46.279Z,85.56
2022-09-03T14:04:02.308Z,83.12
2022-09-03T14:05:12.292Z,86.63
2022-09-03T14:06:42.597Z,94.19
2022-09-03T14:07:52.137Z,93.44
2022-09-03T14:09:32.068Z,87.94
2022-09-03T14:11:00.183Z,83.37
2022-09-03T14:12:07.147Z,88.37
2022-09-03T14:13:30.626Z,91.12
2022-09-03T14:15:02.344Z,85.81
2022-09-03T14:16:30.088Z,95.75
2022-09-03T14:18:02.348Z,86.31
2022-09-03T14:19:12.146Z,94.81
2022-09-03T14:20:28.963Z,85.69
2022-09-03T14:21:57.000Z,82.56
2022-09-03T14:23:23.470Z,83.25
2022-09-03T14:24:33.108Z,82.94
2022-09-03T14:25:37.459Z,77.00
2022-09-03T14:26:50.279Z,85.06
2022-09-03T14:27:56.372Z,86.87
2022-09-03T14:29:05.853Z,91.25
2022-09-03T14:30:29.671Z,90.19
2022-09-03T14:31:58.846Z,86.19
2022-09-03T14:33:05.855Z,86.75
2022-09-03T14:34:15.301Z,82.88
2022-09-03T14:35:25.221Z,83.37
2022-09-03T14:36:47.876Z,89.81
2022-09-03T14:38:00.418Z,81.56
2022-09-03T14:39:11.759Z,90.69
2022-09-03T14:40:19.359Z,84.31
2022-09-03T14:41:32.510Z,90.50
2022-09-03T14:43:09.238Z,91.37
2022-09-03T14:44:40.208Z,83.75
2022-09-03T14:46:05.773Z,84.25
2022-09-03T14:47:22.207Z,89.25
2022-09-03T14:48:57.255Z,85.44
2022-09-03T14:50:24.684Z,83.19
2022-09-03T14:52:07.870Z,92.00
2022-09-03T14:53:17.451Z,98.37
2022-09-03T14:54:39.136Z,89.44
2022-09-03T14:55:53.960Z,101.87
2022-09-03T14:57:17.156Z,108.31
2022-09-03T14:58:58.565Z,109.06